Torm Amalie — 9V8552 — position and weather

sailwx.info

Track history (hours):
 
Tides and Currents Weather Stations Pressure Air Temp Water Temp Dewpoint Dewpoint Depression Visibility Wind Speed Wind Dir Waves Ship Positions

Torm Amalie

Last reported at 2017-Dec-04 02:14 UTC. Time now 2017-Dec-13 19:01 UTC.
Position N 71°18' E 023°32'.
Warning: this ship's position is 9 days out of date.

Length 183 m; draft 11.5 m.

Type: Ship. MMSI: 564081000.

Date/timePositionNaut miles runAvg speedWind from/ knotsBaromVisibWave heightAir tempDewpointWater temp
2017-Dec-04 02:14N 71°18' E 023°32'1 5.0
2017-Dec-04 02:00N 71°17' E 023°35'1 2.2
2017-Dec-04 01:30N 71°17' E 023°38'1 2.3
2017-Dec-04 01:00N 71°17' E 023°34'1 2.3
2017-Dec-04 00:30N 71°17' E 023°31'1 2.4
2017-Dec-04 00:00N 71°17' E 023°27'19 3.0
2017-Dec-03 17:52N 71°10' E 022°34'411.8
2017-Dec-03 17:30N 71°07' E 022°24'511.0
2017-Dec-03 17:00N 71°05' E 022°09'  
2017-Nov-25 16:30N 55°31' E 006°04'611.7
2017-Nov-25 15:59N 55°25' E 006°06'611.8
2017-Nov-25 15:29N 55°19' E 006°09'612.0
2017-Nov-25 14:58N 55°13' E 006°11'612.0
2017-Nov-25 14:29N 55°07' E 006°13'611.8
2017-Nov-25 14:00N 55°02' E 006°15'611.5
2017-Nov-25 13:29N 54°56' E 006°18'2511.1
2017-Nov-25 11:13N 54°39' E 006°50'211.5
2017-Nov-25 11:01N 54°37' E 006°53'3812.2
2017-Nov-25 07:54N 54°12' E 007°41'513.2
2017-Nov-25 07:30N 54°08' E 007°47'713.2
2017-Nov-25 07:01N 54°04' E 007°56'510.2
2017-Nov-25 06:31N 54°02' E 008°04'5 9.9
2017-Nov-25 06:00N 54°00' E 008°12'714.2
2017-Nov-25 05:30N 53°59' E 008°24'715.0
2017-Nov-25 05:01N 53°58' E 008°36'713.2
2017-Nov-25 04:30N 53°53' E 008°43'611.3
2017-Nov-25 04:01N 53°50' E 008°52'611.2
2017-Nov-25 03:30N 53°52' E 009°01'510.2
2017-Nov-25 03:00N 53°53' E 009°10'5 9.1
2017-Nov-25 02:31N 53°52' E 009°17'510.2
2017-Nov-25 02:01N 53°48' E 009°23'611.2
2017-Nov-25 01:31N 53°43' E 009°28'612.3
2017-Nov-25 01:00N 53°38' E 009°32'713.8
2017-Nov-25 00:30N 53°34' E 009°42'611.5
2017-Nov-25 00:00N 53°33' E 009°51'3 6.8
2017-Nov-24 23:30N 53°31' E 009°56'1 2.0
2017-Nov-24 22:58N 53°30' E 009°58'0 0.0
2017-Nov-24 22:28N 53°30' E 009°58'0 0.0
2017-Nov-24 21:58N 53°30' E 009°58'0 0.0
2017-Nov-24 21:28N 53°30' E 009°58'0 0.0
2017-Nov-24 20:58N 53°30' E 009°58'0 0.0
2017-Nov-24 20:28N 53°30' E 009°58'0 0.0
2017-Nov-24 19:58N 53°30' E 009°58'0 0.0
2017-Nov-24 19:28N 53°30' E 009°58'0 0.0
2017-Nov-24 18:58N 53°30' E 009°58'0 0.0
2017-Nov-24 18:28N 53°30' E 009°58'0 0.0
2017-Nov-24 17:58N 53°30' E 009°58'0 0.0
2017-Nov-24 17:28N 53°30' E 009°58'0 0.0
2017-Nov-24 16:58N 53°30' E 009°58'0 0.0
2017-Nov-24 16:28N 53°30' E 009°58'0 0.0
2017-Nov-24 15:58N 53°30' E 009°58'0 0.0
2017-Nov-24 15:28N 53°30' E 009°58'0 0.0
2017-Nov-24 14:58N 53°30' E 009°58'0 0.0
2017-Nov-24 14:28N 53°30' E 009°58'0 0.0
2017-Nov-24 13:58N 53°30' E 009°58'0 0.0
2017-Nov-24 13:28N 53°30' E 009°58'0 0.0
2017-Nov-24 12:58N 53°30' E 009°58'0 0.0
2017-Nov-24 12:25N 53°30' E 009°58'0 0.0
2017-Nov-24 11:58N 53°30' E 009°58'0 0.0
2017-Nov-24 11:28N 53°30' E 009°58'0 0.0
2017-Nov-24 10:58N 53°30' E 009°58'0 0.0
2017-Nov-24 10:28N 53°30' E 009°58'0 0.0
2017-Nov-24 09:58N 53°30' E 009°58'0 0.0
2017-Nov-24 09:28N 53°30' E 009°58'0 0.0
2017-Nov-24 08:58N 53°30' E 009°58'0 0.0
2017-Nov-24 08:28N 53°30' E 009°58'0 0.0
2017-Nov-24 07:58N 53°30' E 009°58'0 0.0
2017-Nov-24 07:28N 53°30' E 009°58'0 0.0
2017-Nov-24 06:58N 53°30' E 009°58'0 0.0
2017-Nov-24 06:28N 53°30' E 009°58'0 0.0
2017-Nov-24 05:58N 53°30' E 009°58'0 0.3
2017-Nov-24 05:30N 53°30' E 009°57'2 4.9
2017-Nov-24 05:00N 53°32' E 009°55'4 7.8
2017-Nov-24 04:30N 53°33' E 009°49'511.0
2017-Nov-24 04:00N 53°34' E 009°40'612.2
2017-Nov-24 03:30N 53°38' E 009°32'612.0
2017-Nov-24 03:01N 53°43' E 009°28'714.2
2017-Nov-24 02:31N 53°49' E 009°22'  
Track history (hours):
 
Tides and Currents Weather Stations Pressure Air Temp Water Temp Dewpoint Dewpoint Depression Visibility Wind Speed Wind Dir Waves Ship Positions

Torm Amalie

Last reported at 2017-Dec-04 02:14 UTC. Time now 2017-Dec-13 19:01 UTC.
Position N 71°18' E 023°32'.
Warning: this ship's position is 9 days out of date.

Length 183 m; draft 11.5 m.

Type: Ship. MMSI: 564081000.

Date/timePositionNaut miles runAvg speedWind from/ knotsBaromVisibWave heightAir tempDewpointWater temp
2017-Dec-04 02:14N 71°18' E 023°32'1 5.0
2017-Dec-04 02:00N 71°17' E 023°35'1 2.2
2017-Dec-04 01:30N 71°17' E 023°38'1 2.3
2017-Dec-04 01:00N 71°17' E 023°34'1 2.3
2017-Dec-04 00:30N 71°17' E 023°31'1 2.4
2017-Dec-04 00:00N 71°17' E 023°27'19 3.0
2017-Dec-03 17:52N 71°10' E 022°34'411.8
2017-Dec-03 17:30N 71°07' E 022°24'511.0
2017-Dec-03 17:00N 71°05' E 022°09'  
2017-Nov-25 16:30N 55°31' E 006°04'611.7
2017-Nov-25 15:59N 55°25' E 006°06'611.8
2017-Nov-25 15:29N 55°19' E 006°09'612.0
2017-Nov-25 14:58N 55°13' E 006°11'612.0
2017-Nov-25 14:29N 55°07' E 006°13'611.8
2017-Nov-25 14:00N 55°02' E 006°15'611.5
2017-Nov-25 13:29N 54°56' E 006°18'2511.1
2017-Nov-25 11:13N 54°39' E 006°50'211.5
2017-Nov-25 11:01N 54°37' E 006°53'3812.2
2017-Nov-25 07:54N 54°12' E 007°41'513.2
2017-Nov-25 07:30N 54°08' E 007°47'713.2
2017-Nov-25 07:01N 54°04' E 007°56'510.2
2017-Nov-25 06:31N 54°02' E 008°04'5 9.9
2017-Nov-25 06:00N 54°00' E 008°12'714.2
2017-Nov-25 05:30N 53°59' E 008°24'715.0
2017-Nov-25 05:01N 53°58' E 008°36'713.2
2017-Nov-25 04:30N 53°53' E 008°43'611.3
2017-Nov-25 04:01N 53°50' E 008°52'611.2
2017-Nov-25 03:30N 53°52' E 009°01'510.2
2017-Nov-25 03:00N 53°53' E 009°10'5 9.1
2017-Nov-25 02:31N 53°52' E 009°17'510.2
2017-Nov-25 02:01N 53°48' E 009°23'611.2
2017-Nov-25 01:31N 53°43' E 009°28'612.3
2017-Nov-25 01:00N 53°38' E 009°32'713.8
2017-Nov-25 00:30N 53°34' E 009°42'611.5
2017-Nov-25 00:00N 53°33' E 009°51'3 6.8
2017-Nov-24 23:30N 53°31' E 009°56'1 2.0
2017-Nov-24 22:58N 53°30' E 009°58'0 0.0
2017-Nov-24 22:28N 53°30' E 009°58'0 0.0
2017-Nov-24 21:58N 53°30' E 009°58'0 0.0
2017-Nov-24 21:28N 53°30' E 009°58'0 0.0
2017-Nov-24 20:58N 53°30' E 009°58'0 0.0
2017-Nov-24 20:28N 53°30' E 009°58'0 0.0
2017-Nov-24 19:58N 53°30' E 009°58'0 0.0
2017-Nov-24 19:28N 53°30' E 009°58'0 0.0
2017-Nov-24 18:58N 53°30' E 009°58'0 0.0
2017-Nov-24 18:28N 53°30' E 009°58'0 0.0
2017-Nov-24 17:58N 53°30' E 009°58'0 0.0
2017-Nov-24 17:28N 53°30' E 009°58'0 0.0
2017-Nov-24 16:58N 53°30' E 009°58'0 0.0
2017-Nov-24 16:28N 53°30' E 009°58'0 0.0
2017-Nov-24 15:58N 53°30' E 009°58'0 0.0
2017-Nov-24 15:28N 53°30' E 009°58'0 0.0
2017-Nov-24 14:58N 53°30' E 009°58'0 0.0
2017-Nov-24 14:28N 53°30' E 009°58'0 0.0
2017-Nov-24 13:58N 53°30' E 009°58'0 0.0
2017-Nov-24 13:28N 53°30' E 009°58'0 0.0
2017-Nov-24 12:58N 53°30' E 009°58'0 0.0
2017-Nov-24 12:25N 53°30' E 009°58'0 0.0
2017-Nov-24 11:58N 53°30' E 009°58'0 0.0
2017-Nov-24 11:28N 53°30' E 009°58'0 0.0
2017-Nov-24 10:58N 53°30' E 009°58'0 0.0
2017-Nov-24 10:28N 53°30' E 009°58'0 0.0
2017-Nov-24 09:58N 53°30' E 009°58'0 0.0
2017-Nov-24 09:28N 53°30' E 009°58'0 0.0
2017-Nov-24 08:58N 53°30' E 009°58'0 0.0
2017-Nov-24 08:28N 53°30' E 009°58'0 0.0
2017-Nov-24 07:58N 53°30' E 009°58'0 0.0
2017-Nov-24 07:28N 53°30' E 009°58'0 0.0
2017-Nov-24 06:58N 53°30' E 009°58'0 0.0
2017-Nov-24 06:28N 53°30' E 009°58'0 0.0
2017-Nov-24 05:58N 53°30' E 009°58'0 0.3
2017-Nov-24 05:30N 53°30' E 009°57'2 4.9
2017-Nov-24 05:00N 53°32' E 009°55'4 7.8
2017-Nov-24 04:30N 53°33' E 009°49'511.0
2017-Nov-24 04:00N 53°34' E 009°40'612.2
2017-Nov-24 03:30N 53°38' E 009°32'612.0
2017-Nov-24 03:01N 53°43' E 009°28'714.2
2017-Nov-24 02:31N 53°49' E 009°22'  

Dump ship's entire track history